sensor_id;sensor_type;location;lat;lon;timestamp;P1;durP1;ratioP1;P2;durP2;ratioP2
21014;SDS011;19207;-23.482;-46.500;2023-07-20T00:01:33;5.20;;;4.43;;
21014;SDS011;19207;-23.482;-46.500;2023-07-20T00:04:20;4.25;;;3.10;;
21014;SDS011;19207;-23.482;-46.500;2023-07-20T00:07:08;9.77;;;3.60;;
21014;SDS011;19207;-23.482;-46.500;2023-07-20T00:09:54;3.90;;;3.30;;
21014;SDS011;19207;-23.482;-46.500;2023-07-20T00:12:41;5.72;;;4.00;;
21014;SDS011;19207;-23.482;-46.500;2023-07-20T00:15:32;5.82;;;3.55;;
21014;SDS011;19207;-23.482;-46.500;2023-07-20T00:18:19;7.87;;;3.97;;
21014;SDS011;19207;-23.482;-46.500;2023-07-20T00:21:06;11.20;;;4.30;;
21014;SDS011;19207;-23.482;-46.500;2023-07-20T00:23:54;9.20;;;4.40;;
21014;SDS011;19207;-23.482;-46.500;2023-07-20T00:26:41;13.00;;;4.82;;
21014;SDS011;19207;-23.482;-46.500;2023-07-20T00:29:28;12.23;;;4.60;;
21014;SDS011;19207;-23.482;-46.500;2023-07-20T00:32:15;9.27;;;4.50;;
21014;SDS011;19207;-23.482;-46.500;2023-07-20T00:35:02;12.40;;;5.80;;
21014;SDS011;19207;-23.482;-46.500;2023-07-20T00:37:49;11.40;;;5.68;;
21014;SDS011;19207;-23.482;-46.500;2023-07-20T00:40:36;14.30;;;6.78;;
21014;SDS011;19207;-23.482;-46.500;2023-07-20T00:43:23;13.23;;;5.85;;
21014;SDS011;19207;-23.482;-46.500;2023-07-20T00:46:10;13.02;;;6.30;;
21014;SDS011;19207;-23.482;-46.500;2023-07-20T00:48:58;10.05;;;5.93;;
21014;SDS011;19207;-23.482;-46.500;2023-07-20T00:51:45;16.20;;;7.37;;
21014;SDS011;19207;-23.482;-46.500;2023-07-20T00:54:32;14.85;;;6.40;;
21014;SDS011;19207;-23.482;-46.500;2023-07-20T00:57:19;16.33;;;6.68;;
21014;SDS011;19207;-23.482;-46.500;2023-07-20T01:00:06;9.43;;;5.50;;
21014;SDS011;19207;-23.482;-46.500;2023-07-20T01:02:54;6.53;;;4.15;;
21014;SDS011;19207;-23.482;-46.500;2023-07-20T01:09:10;5.32;;;3.87;;
21014;SDS011;19207;-23.482;-46.500;2023-07-20T01:14:50;5.28;;;3.50;;
21014;SDS011;19207;-23.482;-46.500;2023-07-20T01:17:37;5.53;;;3.90;;
21014;SDS011;19207;-23.482;-46.500;2023-07-20T01:20:24;5.50;;;3.03;;
21014;SDS011;19207;-23.482;-46.500;2023-07-20T01:32:33;11.90;;;5.20;;
21014;SDS011;19207;-23.482;-46.500;2023-07-20T01:35:21;12.05;;;5.78;;
21014;SDS011;19207;-23.482;-46.500;2023-07-20T01:38:11;12.63;;;6.28;;
21014;SDS011;19207;-23.482;-46.500;2023-07-20T01:40:58;12.65;;;6.90;;
21014;SDS011;19207;-23.482;-46.500;2023-07-20T01:43:46;11.00;;;5.93;;
21014;SDS011;19207;-23.482;-46.500;2023-07-20T01:46:32;14.10;;;6.90;;
21014;SDS011;19207;-23.482;-46.500;2023-07-20T01:49:19;12.63;;;7.10;;
21014;SDS011;19207;-23.482;-46.500;2023-07-20T01:52:07;11.55;;;7.40;;
21014;SDS011;19207;-23.482;-46.500;2023-07-20T01:54:53;16.33;;;8.75;;
21014;SDS011;19207;-23.482;-46.500;2023-07-20T01:57:41;20.85;;;8.07;;
21014;SDS011;19207;-23.482;-46.500;2023-07-20T02:00:28;17.30;;;8.30;;
21014;SDS011;19207;-23.482;-46.500;2023-07-20T02:03:15;16.52;;;7.47;;
21014;SDS011;19207;-23.482;-46.500;2023-07-20T02:06:01;14.20;;;7.32;;
21014;SDS011;19207;-23.482;-46.500;2023-07-20T02:08:48;17.10;;;6.95;;
21014;SDS011;19207;-23.482;-46.500;2023-07-20T02:11:35;12.77;;;7.25;;
21014;SDS011;19207;-23.482;-46.500;2023-07-20T02:14:22;12.98;;;5.87;;
21014;SDS011;19207;-23.482;-46.500;2023-07-20T02:17:09;15.90;;;5.70;;
21014;SDS011;19207;-23.482;-46.500;2023-07-20T02:19:56;17.87;;;5.62;;
21014;SDS011;19207;-23.482;-46.500;2023-07-20T02:22:43;17.42;;;6.00;;
21014;SDS011;19207;-23.482;-46.500;2023-07-20T02:25:30;12.05;;;5.93;;
21014;SDS011;19207;-23.482;-46.500;2023-07-20T02:28:17;16.98;;;6.12;;
21014;SDS011;19207;-23.482;-46.500;2023-07-20T02:31:05;17.10;;;6.62;;
21014;SDS011;19207;-23.482;-46.500;2023-07-20T02:33:51;21.67;;;7.18;;
21014;SDS011;19207;-23.482;-46.500;2023-07-20T02:36:39;13.95;;;6.70;;
21014;SDS011;19207;-23.482;-46.500;2023-07-20T02:39:27;15.68;;;6.47;;
21014;SDS011;19207;-23.482;-46.500;2023-07-20T02:42:14;13.55;;;6.57;;
21014;SDS011;19207;-23.482;-46.500;2023-07-20T02:45:04;15.82;;;6.25;;
21014;SDS011;19207;-23.482;-46.500;2023-07-20T02:47:52;12.77;;;5.40;;
21014;SDS011;19207;-23.482;-46.500;2023-07-20T02:50:39;11.45;;;4.85;;
21014;SDS011;19207;-23.482;-46.500;2023-07-20T02:53:27;8.68;;;4.82;;
21014;SDS011;19207;-23.482;-46.500;2023-07-20T02:56:13;22.98;;;11.05;;
21014;SDS011;19207;-23.482;-46.500;2023-07-20T02:59:01;10.85;;;6.65;;
21014;SDS011;19207;-23.482;-46.500;2023-07-20T03:01:49;16.45;;;7.28;;
21014;SDS011;19207;-23.482;-46.500;2023-07-20T03:04:36;17.08;;;7.22;;
21014;SDS011;19207;-23.482;-46.500;2023-07-20T03:07:23;19.08;;;6.05;;
21014;SDS011;19207;-23.482;-46.500;2023-07-20T03:10:10;7.28;;;4.10;;
21014;SDS011;19207;-23.482;-46.500;2023-07-20T03:12:58;9.02;;;4.15;;
21014;SDS011;19207;-23.482;-46.500;2023-07-20T03:15:45;9.88;;;3.85;;
21014;SDS011;19207;-23.482;-46.500;2023-07-20T03:18:31;8.95;;;4.10;;
21014;SDS011;19207;-23.482;-46.500;2023-07-20T03:21:18;8.52;;;3.20;;
21014;SDS011;19207;-23.482;-46.500;2023-07-20T03:24:05;3.17;;;2.80;;
21014;SDS011;19207;-23.482;-46.500;2023-07-20T03:26:52;6.55;;;2.95;;
21014;SDS011;19207;-23.482;-46.500;2023-07-20T03:29:40;9.80;;;3.50;;
21014;SDS011;19207;-23.482;-46.500;2023-07-20T03:32:27;9.10;;;4.40;;
21014;SDS011;19207;-23.482;-46.500;2023-07-20T03:35:14;9.00;;;4.70;;
21014;SDS011;19207;-23.482;-46.500;2023-07-20T03:38:01;13.98;;;5.60;;
21014;SDS011;19207;-23.482;-46.500;2023-07-20T03:40:52;9.25;;;4.90;;
21014;SDS011;19207;-23.482;-46.500;2023-07-20T03:43:40;7.90;;;3.90;;
21014;SDS011;19207;-23.482;-46.500;2023-07-20T03:46:26;9.55;;;3.60;;
21014;SDS011;19207;-23.482;-46.500;2023-07-20T03:49:13;6.03;;;3.20;;
21014;SDS011;19207;-23.482;-46.500;2023-07-20T03:52:00;8.40;;;3.45;;
21014;SDS011;19207;-23.482;-46.500;2023-07-20T03:54:50;5.62;;;3.70;;
21014;SDS011;19207;-23.482;-46.500;2023-07-20T03:57:37;13.70;;;5.53;;
21014;SDS011;19207;-23.482;-46.500;2023-07-20T04:00:25;11.60;;;5.28;;
21014;SDS011;19207;-23.482;-46.500;2023-07-20T04:03:12;13.38;;;5.03;;
21014;SDS011;19207;-23.482;-46.500;2023-07-20T04:05:59;10.20;;;5.45;;
21014;SDS011;19207;-23.482;-46.500;2023-07-20T04:08:46;14.07;;;6.60;;
21014;SDS011;19207;-23.482;-46.500;2023-07-20T04:11:33;15.13;;;6.82;;
21014;SDS011;19207;-23.482;-46.500;2023-07-20T04:14:20;11.45;;;6.55;;
21014;SDS011;19207;-23.482;-46.500;2023-07-20T04:17:07;9.43;;;5.40;;
21014;SDS011;19207;-23.482;-46.500;2023-07-20T04:19:54;14.18;;;5.97;;
21014;SDS011;19207;-23.482;-46.500;2023-07-20T04:22:40;12.27;;;6.18;;
21014;SDS011;19207;-23.482;-46.500;2023-07-20T04:25:28;10.30;;;5.50;;
21014;SDS011;19207;-23.482;-46.500;2023-07-20T04:28:15;12.30;;;5.78;;
21014;SDS011;19207;-23.482;-46.500;2023-07-20T04:31:12;10.25;;;5.90;;
21014;SDS011;19207;-23.482;-46.500;2023-07-20T04:33:59;11.75;;;5.75;;
21014;SDS011;19207;-23.482;-46.500;2023-07-20T04:36:46;14.60;;;6.25;;
21014;SDS011;19207;-23.482;-46.500;2023-07-20T04:39:33;12.15;;;5.50;;
21014;SDS011;19207;-23.482;-46.500;2023-07-20T04:42:21;13.55;;;5.80;;
21014;SDS011;19207;-23.482;-46.500;2023-07-20T04:45:08;11.48;;;5.10;;
21014;SDS011;19207;-23.482;-46.500;2023-07-20T04:47:55;11.70;;;6.35;;
21014;SDS011;19207;-23.482;-46.500;2023-07-20T04:50:42;11.52;;;5.78;;
21014;SDS011;19207;-23.482;-46.500;2023-07-20T04:53:29;6.62;;;3.47;;
21014;SDS011;19207;-23.482;-46.500;2023-07-20T04:56:16;4.78;;;3.10;;
21014;SDS011;19207;-23.482;-46.500;2023-07-20T04:59:03;2.60;;;2.33;;
21014;SDS011;19207;-23.482;-46.500;2023-07-20T05:01:50;5.43;;;2.30;;
21014;SDS011;19207;-23.482;-46.500;2023-07-20T05:04:37;2.97;;;2.40;;
21014;SDS011;19207;-23.482;-46.500;2023-07-20T05:07:25;3.90;;;2.40;;
21014;SDS011;19207;-23.482;-46.500;2023-07-20T05:10:12;4.05;;;2.70;;
21014;SDS011;19207;-23.482;-46.500;2023-07-20T05:12:59;4.80;;;2.87;;
21014;SDS011;19207;-23.482;-46.500;2023-07-20T05:15:46;4.07;;;3.10;;
21014;SDS011;19207;-23.482;-46.500;2023-07-20T05:18:33;5.62;;;3.30;;
21014;SDS011;19207;-23.482;-46.500;2023-07-20T05:21:20;7.87;;;4.07;;
21014;SDS011;19207;-23.482;-46.500;2023-07-20T05:24:07;7.68;;;4.03;;
21014;SDS011;19207;-23.482;-46.500;2023-07-20T05:26:54;5.45;;;3.62;;
21014;SDS011;19207;-23.482;-46.500;2023-07-20T05:29:44;6.87;;;3.60;;
21014;SDS011;19207;-23.482;-46.500;2023-07-20T05:32:31;6.85;;;4.22;;
21014;SDS011;19207;-23.482;-46.500;2023-07-20T05:35:19;10.80;;;5.35;;
21014;SDS011;19207;-23.482;-46.500;2023-07-20T05:38:07;15.23;;;5.82;;
21014;SDS011;19207;-23.482;-46.500;2023-07-20T05:40:58;10.68;;;5.03;;
21014;SDS011;19207;-23.482;-46.500;2023-07-20T05:43:49;9.43;;;4.68;;
21014;SDS011;19207;-23.482;-46.500;2023-07-20T05:46:36;9.57;;;4.87;;
21014;SDS011;19207;-23.482;-46.500;2023-07-20T05:49:23;11.55;;;5.03;;
21014;SDS011;19207;-23.482;-46.500;2023-07-20T05:52:09;19.95;;;5.00;;
21014;SDS011;19207;-23.482;-46.500;2023-07-20T05:54:56;12.10;;;4.12;;
21014;SDS011;19207;-23.482;-46.500;2023-07-20T05:57:42;8.32;;;3.78;;
21014;SDS011;19207;-23.482;-46.500;2023-07-20T06:00:29;4.20;;;3.03;;
21014;SDS011;19207;-23.482;-46.500;2023-07-20T06:03:17;10.50;;;3.00;;
21014;SDS011;19207;-23.482;-46.500;2023-07-20T06:06:06;4.53;;;2.90;;
21014;SDS011;19207;-23.482;-46.500;2023-07-20T06:08:54;2.58;;;2.37;;
21014;SDS011;19207;-23.482;-46.500;2023-07-20T06:11:41;4.60;;;2.80;;
21014;SDS011;19207;-23.482;-46.500;2023-07-20T06:14:28;5.07;;;2.80;;
21014;SDS011;19207;-23.482;-46.500;2023-07-20T06:17:14;4.78;;;2.80;;
21014;SDS011;19207;-23.482;-46.500;2023-07-20T06:20:02;4.72;;;3.22;;
21014;SDS011;19207;-23.482;-46.500;2023-07-20T06:22:48;12.07;;;4.20;;
21014;SDS011;19207;-23.482;-46.500;2023-07-20T06:25:35;5.85;;;3.83;;
21014;SDS011;19207;-23.482;-46.500;2023-07-20T06:28:22;9.57;;;4.32;;
21014;SDS011;19207;-23.482;-46.500;2023-07-20T06:31:08;11.45;;;4.80;;
21014;SDS011;19207;-23.482;-46.500;2023-07-20T06:33:56;13.52;;;4.75;;
21014;SDS011;19207;-23.482;-46.500;2023-07-20T06:36:43;15.27;;;4.75;;
21014;SDS011;19207;-23.482;-46.500;2023-07-20T06:39:30;13.07;;;4.18;;
21014;SDS011;19207;-23.482;-46.500;2023-07-20T06:42:17;12.32;;;4.28;;
21014;SDS011;19207;-23.482;-46.500;2023-07-20T06:45:04;9.82;;;4.20;;
21014;SDS011;19207;-23.482;-46.500;2023-07-20T06:47:51;10.05;;;4.40;;
21014;SDS011;19207;-23.482;-46.500;2023-07-20T06:50:38;18.45;;;5.45;;
21014;SDS011;19207;-23.482;-46.500;2023-07-20T06:53:25;10.05;;;4.70;;
21014;SDS011;19207;-23.482;-46.500;2023-07-20T06:56:12;11.07;;;4.62;;
21014;SDS011;19207;-23.482;-46.500;2023-07-20T06:58:59;10.48;;;4.43;;
21014;SDS011;19207;-23.482;-46.500;2023-07-20T07:01:48;10.73;;;4.30;;
21014;SDS011;19207;-23.482;-46.500;2023-07-20T07:04:35;12.85;;;3.90;;
21014;SDS011;19207;-23.482;-46.500;2023-07-20T07:07:22;8.10;;;3.67;;
21014;SDS011;19207;-23.482;-46.500;2023-07-20T07:10:09;8.43;;;3.62;;
21014;SDS011;19207;-23.482;-46.500;2023-07-20T07:12:55;8.15;;;3.85;;
21014;SDS011;19207;-23.482;-46.500;2023-07-20T07:15:43;16.17;;;4.60;;
21014;SDS011;19207;-23.482;-46.500;2023-07-20T07:18:30;13.75;;;4.65;;
21014;SDS011;19207;-23.482;-46.500;2023-07-20T07:21:17;12.70;;;4.78;;
21014;SDS011;19207;-23.482;-46.500;2023-07-20T07:24:04;15.88;;;5.18;;
21014;SDS011;19207;-23.482;-46.500;2023-07-20T07:26:52;13.75;;;5.28;;
21014;SDS011;19207;-23.482;-46.500;2023-07-20T07:29:39;18.08;;;5.80;;
21014;SDS011;19207;-23.482;-46.500;2023-07-20T07:32:26;14.13;;;5.10;;
21014;SDS011;19207;-23.482;-46.500;2023-07-20T07:35:13;10.48;;;4.80;;
21014;SDS011;19207;-23.482;-46.500;2023-07-20T07:38:01;8.25;;;4.40;;
21014;SDS011;19207;-23.482;-46.500;2023-07-20T07:40:48;16.67;;;4.62;;
21014;SDS011;19207;-23.482;-46.500;2023-07-20T07:43:34;8.68;;;4.00;;
21014;SDS011;19207;-23.482;-46.500;2023-07-20T07:46:21;12.30;;;4.80;;
21014;SDS011;19207;-23.482;-46.500;2023-07-20T07:49:08;12.95;;;4.97;;
21014;SDS011;19207;-23.482;-46.500;2023-07-20T07:51:55;11.88;;;5.28;;
21014;SDS011;19207;-23.482;-46.500;2023-07-20T07:54:42;13.68;;;5.80;;
21014;SDS011;19207;-23.482;-46.500;2023-07-20T07:57:28;18.90;;;6.18;;
21014;SDS011;19207;-23.482;-46.500;2023-07-20T08:00:15;17.62;;;6.35;;
21014;SDS011;19207;-23.482;-46.500;2023-07-20T08:03:04;16.15;;;6.03;;
21014;SDS011;19207;-23.482;-46.500;2023-07-20T08:05:53;12.68;;;5.20;;
21014;SDS011;19207;-23.482;-46.500;2023-07-20T08:08:40;14.65;;;5.57;;
21014;SDS011;19207;-23.482;-46.500;2023-07-20T08:11:30;10.88;;;5.32;;
21014;SDS011;19207;-23.482;-46.500;2023-07-20T08:14:18;13.00;;;4.60;;
21014;SDS011;19207;-23.482;-46.500;2023-07-20T08:17:05;8.45;;;4.15;;
21014;SDS011;19207;-23.482;-46.500;2023-07-20T08:19:52;13.55;;;4.57;;
21014;SDS011;19207;-23.482;-46.500;2023-07-20T08:22:39;9.38;;;4.53;;
21014;SDS011;19207;-23.482;-46.500;2023-07-20T08:25:26;10.98;;;4.78;;
21014;SDS011;19207;-23.482;-46.500;2023-07-20T08:28:14;18.52;;;5.07;;
21014;SDS011;19207;-23.482;-46.500;2023-07-20T08:31:01;13.20;;;5.35;;
21014;SDS011;19207;-23.482;-46.500;2023-07-20T08:33:48;17.02;;;5.90;;
21014;SDS011;19207;-23.482;-46.500;2023-07-20T08:36:36;14.80;;;5.85;;
21014;SDS011;19207;-23.482;-46.500;2023-07-20T08:39:23;18.48;;;5.50;;
21014;SDS011;19207;-23.482;-46.500;2023-07-20T08:42:10;11.18;;;5.35;;
21014;SDS011;19207;-23.482;-46.500;2023-07-20T08:44:57;17.00;;;6.35;;
21014;SDS011;19207;-23.482;-46.500;2023-07-20T08:47:45;15.10;;;7.18;;
21014;SDS011;19207;-23.482;-46.500;2023-07-20T08:50:32;14.20;;;6.32;;
21014;SDS011;19207;-23.482;-46.500;2023-07-20T08:53:19;16.60;;;6.57;;
21014;SDS011;19207;-23.482;-46.500;2023-07-20T08:56:06;18.67;;;7.60;;
21014;SDS011;19207;-23.482;-46.500;2023-07-20T08:58:53;17.67;;;7.15;;
21014;SDS011;19207;-23.482;-46.500;2023-07-20T09:01:40;22.30;;;7.00;;
21014;SDS011;19207;-23.482;-46.500;2023-07-20T09:04:27;15.18;;;6.45;;
21014;SDS011;19207;-23.482;-46.500;2023-07-20T09:07:15;13.75;;;6.70;;
21014;SDS011;19207;-23.482;-46.500;2023-07-20T09:10:02;17.83;;;6.97;;
21014;SDS011;19207;-23.482;-46.500;2023-07-20T09:12:51;19.62;;;7.05;;
21014;SDS011;19207;-23.482;-46.500;2023-07-20T09:15:37;18.67;;;7.50;;
21014;SDS011;19207;-23.482;-46.500;2023-07-20T09:18:28;20.67;;;7.68;;
21014;SDS011;19207;-23.482;-46.500;2023-07-20T09:21:16;23.95;;;8.35;;
21014;SDS011;19207;-23.482;-46.500;2023-07-20T09:24:03;19.60;;;7.85;;
21014;SDS011;19207;-23.482;-46.500;2023-07-20T09:26:50;22.85;;;8.13;;
21014;SDS011;19207;-23.482;-46.500;2023-07-20T09:29:50;20.02;;;7.50;;
21014;SDS011;19207;-23.482;-46.500;2023-07-20T09:32:47;28.60;;;7.62;;
21014;SDS011;19207;-23.482;-46.500;2023-07-20T09:35:34;20.48;;;6.80;;
21014;SDS011;19207;-23.482;-46.500;2023-07-20T09:38:21;12.93;;;6.50;;
21014;SDS011;19207;-23.482;-46.500;2023-07-20T09:41:18;12.45;;;6.12;;
21014;SDS011;19207;-23.482;-46.500;2023-07-20T09:44:05;18.17;;;6.37;;
21014;SDS011;19207;-23.482;-46.500;2023-07-20T09:46:55;22.05;;;6.75;;
21014;SDS011;19207;-23.482;-46.500;2023-07-20T09:49:42;14.32;;;6.03;;
21014;SDS011;19207;-23.482;-46.500;2023-07-20T09:52:29;14.35;;;5.32;;
21014;SDS011;19207;-23.482;-46.500;2023-07-20T09:55:16;20.73;;;5.90;;
21014;SDS011;19207;-23.482;-46.500;2023-07-20T09:58:04;16.30;;;5.60;;
21014;SDS011;19207;-23.482;-46.500;2023-07-20T10:00:52;15.30;;;5.90;;
21014;SDS011;19207;-23.482;-46.500;2023-07-20T10:03:42;17.87;;;5.00;;
21014;SDS011;19207;-23.482;-46.500;2023-07-20T10:06:32;14.43;;;4.82;;
21014;SDS011;19207;-23.482;-46.500;2023-07-20T10:09:20;13.02;;;5.53;;
21014;SDS011;19207;-23.482;-46.500;2023-07-20T10:12:09;15.13;;;5.37;;
21014;SDS011;19207;-23.482;-46.500;2023-07-20T10:20:56;15.55;;;5.18;;
21014;SDS011;19207;-23.482;-46.500;2023-07-20T10:23:43;11.40;;;5.28;;
21014;SDS011;19207;-23.482;-46.500;2023-07-20T10:26:30;14.45;;;5.20;;
21014;SDS011;19207;-23.482;-46.500;2023-07-20T10:29:17;14.18;;;4.95;;
21014;SDS011;19207;-23.482;-46.500;2023-07-20T10:32:04;24.35;;;5.40;;
21014;SDS011;19207;-23.482;-46.500;2023-07-20T10:34:52;18.55;;;5.30;;
21014;SDS011;19207;-23.482;-46.500;2023-07-20T10:40:41;11.57;;;4.72;;
21014;SDS011;19207;-23.482;-46.500;2023-07-20T10:43:28;19.02;;;5.20;;
21014;SDS011;19207;-23.482;-46.500;2023-07-20T10:46:16;11.48;;;4.93;;
21014;SDS011;19207;-23.482;-46.500;2023-07-20T10:49:20;11.85;;;4.85;;
21014;SDS011;19207;-23.482;-46.500;2023-07-20T10:52:11;9.05;;;5.12;;
21014;SDS011;19207;-23.482;-46.500;2023-07-20T10:55:09;11.45;;;6.00;;
21014;SDS011;19207;-23.482;-46.500;2023-07-20T10:58:11;10.40;;;5.50;;
21014;SDS011;19207;-23.482;-46.500;2023-07-20T11:01:00;9.68;;;4.45;;
21014;SDS011;19207;-23.482;-46.500;2023-07-20T11:03:48;12.32;;;6.12;;
21014;SDS011;19207;-23.482;-46.500;2023-07-20T11:06:42;10.45;;;4.97;;
21014;SDS011;19207;-23.482;-46.500;2023-07-20T11:09:33;9.05;;;4.82;;
21014;SDS011;19207;-23.482;-46.500;2023-07-20T11:12:21;8.35;;;5.20;;
21014;SDS011;19207;-23.482;-46.500;2023-07-20T11:15:07;12.10;;;5.20;;
21014;SDS011;19207;-23.482;-46.500;2023-07-20T11:18:02;15.93;;;5.70;;
21014;SDS011;19207;-23.482;-46.500;2023-07-20T11:20:57;8.18;;;5.30;;
21014;SDS011;19207;-23.482;-46.500;2023-07-20T11:23:44;13.40;;;5.75;;
21014;SDS011;19207;-23.482;-46.500;2023-07-20T11:26:39;13.70;;;5.05;;
21014;SDS011;19207;-23.482;-46.500;2023-07-20T11:29:26;4.75;;;3.85;;
21014;SDS011;19207;-23.482;-46.500;2023-07-20T11:32:12;5.00;;;4.10;;
21014;SDS011;19207;-23.482;-46.500;2023-07-20T11:35:12;6.90;;;4.05;;
21014;SDS011;19207;-23.482;-46.500;2023-07-20T11:37:59;9.82;;;3.97;;
21014;SDS011;19207;-23.482;-46.500;2023-07-20T11:40:46;8.77;;;3.70;;
21014;SDS011;19207;-23.482;-46.500;2023-07-20T11:43:34;7.07;;;4.28;;
21014;SDS011;19207;-23.482;-46.500;2023-07-20T11:46:23;7.15;;;4.25;;
21014;SDS011;19207;-23.482;-46.500;2023-07-20T11:49:13;7.97;;;3.30;;
21014;SDS011;19207;-23.482;-46.500;2023-07-20T11:52:00;10.25;;;3.28;;
21014;SDS011;19207;-23.482;-46.500;2023-07-20T11:54:46;9.93;;;3.30;;
21014;SDS011;19207;-23.482;-46.500;2023-07-20T11:57:33;11.70;;;3.10;;
21014;SDS011;19207;-23.482;-46.500;2023-07-20T12:00:24;4.93;;;2.90;;
21014;SDS011;19207;-23.482;-46.500;2023-07-20T12:03:11;6.15;;;3.10;;
21014;SDS011;19207;-23.482;-46.500;2023-07-20T12:06:05;6.50;;;3.12;;
21014;SDS011;19207;-23.482;-46.500;2023-07-20T12:08:57;8.73;;;3.20;;
21014;SDS011;19207;-23.482;-46.500;2023-07-20T12:11:48;7.80;;;3.53;;
21014;SDS011;19207;-23.482;-46.500;2023-07-20T12:14:35;8.23;;;3.58;;
21014;SDS011;19207;-23.482;-46.500;2023-07-20T12:17:22;5.05;;;2.60;;
21014;SDS011;19207;-23.482;-46.500;2023-07-20T12:20:09;4.95;;;2.55;;
21014;SDS011;19207;-23.482;-46.500;2023-07-20T12:22:58;6.07;;;2.60;;
21014;SDS011;19207;-23.482;-46.500;2023-07-20T12:25:45;5.45;;;2.92;;
21014;SDS011;19207;-23.482;-46.500;2023-07-20T12:28:32;7.30;;;3.05;;
21014;SDS011;19207;-23.482;-46.500;2023-07-20T12:31:19;6.45;;;2.90;;
21014;SDS011;19207;-23.482;-46.500;2023-07-20T12:34:06;3.67;;;2.62;;
21014;SDS011;19207;-23.482;-46.500;2023-07-20T12:36:54;6.87;;;2.70;;
21014;SDS011;19207;-23.482;-46.500;2023-07-20T12:39:41;10.55;;;6.20;;
21014;SDS011;19207;-23.482;-46.500;2023-07-20T12:42:31;7.60;;;3.00;;
21014;SDS011;19207;-23.482;-46.500;2023-07-20T12:45:19;16.45;;;3.00;;
21014;SDS011;19207;-23.482;-46.500;2023-07-20T12:48:07;3.40;;;2.80;;
21014;SDS011;19207;-23.482;-46.500;2023-07-20T12:50:54;4.95;;;2.80;;
21014;SDS011;19207;-23.482;-46.500;2023-07-20T12:53:40;5.20;;;3.00;;
21014;SDS011;19207;-23.482;-46.500;2023-07-20T12:56:26;5.20;;;2.70;;
21014;SDS011;19207;-23.482;-46.500;2023-07-20T12:59:13;10.68;;;2.95;;
21014;SDS011;19207;-23.482;-46.500;2023-07-20T13:02:00;5.50;;;2.80;;
21014;SDS011;19207;-23.482;-46.500;2023-07-20T13:04:47;5.57;;;2.70;;
21014;SDS011;19207;-23.482;-46.500;2023-07-20T13:07:35;9.90;;;8.93;;
21014;SDS011;19207;-23.482;-46.500;2023-07-20T13:10:22;4.62;;;3.45;;
21014;SDS011;19207;-23.482;-46.500;2023-07-20T13:13:08;6.90;;;3.30;;
21014;SDS011;19207;-23.482;-46.500;2023-07-20T13:15:55;4.68;;;2.97;;
21014;SDS011;19207;-23.482;-46.500;2023-07-20T13:18:42;11.73;;;3.55;;
21014;SDS011;19207;-23.482;-46.500;2023-07-20T13:21:29;9.35;;;3.47;;
21014;SDS011;19207;-23.482;-46.500;2023-07-20T13:24:16;7.87;;;3.20;;
21014;SDS011;19207;-23.482;-46.500;2023-07-20T13:27:03;12.30;;;4.10;;
21014;SDS011;19207;-23.482;-46.500;2023-07-20T13:29:50;9.02;;;4.10;;
21014;SDS011;19207;-23.482;-46.500;2023-07-20T13:32:36;20.20;;;5.62;;
21014;SDS011;19207;-23.482;-46.500;2023-07-20T13:35:23;7.30;;;3.53;;
21014;SDS011;19207;-23.482;-46.500;2023-07-20T13:38:10;8.13;;;4.10;;
21014;SDS011;19207;-23.482;-46.500;2023-07-20T13:40:56;9.95;;;3.75;;
21014;SDS011;19207;-23.482;-46.500;2023-07-20T13:43:43;8.30;;;3.35;;
21014;SDS011;19207;-23.482;-46.500;2023-07-20T13:46:31;8.15;;;3.20;;
21014;SDS011;19207;-23.482;-46.500;2023-07-20T13:49:17;8.77;;;3.03;;
21014;SDS011;19207;-23.482;-46.500;2023-07-20T13:52:04;7.15;;;2.90;;
21014;SDS011;19207;-23.482;-46.500;2023-07-20T13:54:51;3.00;;;2.70;;
21014;SDS011;19207;-23.482;-46.500;2023-07-20T13:57:37;18.17;;;3.30;;
21014;SDS011;19207;-23.482;-46.500;2023-07-20T14:00:24;4.90;;;3.12;;
21014;SDS011;19207;-23.482;-46.500;2023-07-20T14:03:16;6.43;;;2.90;;
21014;SDS011;19207;-23.482;-46.500;2023-07-20T14:06:03;5.93;;;3.25;;
21014;SDS011;19207;-23.482;-46.500;2023-07-20T14:08:49;12.10;;;3.30;;
21014;SDS011;19207;-23.482;-46.500;2023-07-20T14:11:37;6.60;;;3.70;;
21014;SDS011;19207;-23.482;-46.500;2023-07-20T14:14:24;5.47;;;3.22;;
21014;SDS011;19207;-23.482;-46.500;2023-07-20T14:17:11;7.32;;;4.00;;
21014;SDS011;19207;-23.482;-46.500;2023-07-20T14:20:00;10.63;;;4.20;;
21014;SDS011;19207;-23.482;-46.500;2023-07-20T14:22:50;6.03;;;4.05;;
21014;SDS011;19207;-23.482;-46.500;2023-07-20T14:25:37;6.43;;;3.70;;
21014;SDS011;19207;-23.482;-46.500;2023-07-20T14:28:25;4.05;;;3.50;;
21014;SDS011;19207;-23.482;-46.500;2023-07-20T14:31:12;9.45;;;3.58;;
21014;SDS011;19207;-23.482;-46.500;2023-07-20T14:33:59;5.15;;;3.30;;
21014;SDS011;19207;-23.482;-46.500;2023-07-20T14:36:46;8.57;;;4.20;;
21014;SDS011;19207;-23.482;-46.500;2023-07-20T14:39:32;7.78;;;4.00;;
21014;SDS011;19207;-23.482;-46.500;2023-07-20T14:42:19;8.55;;;3.80;;
21014;SDS011;19207;-23.482;-46.500;2023-07-20T14:45:06;7.62;;;3.55;;
21014;SDS011;19207;-23.482;-46.500;2023-07-20T14:47:54;4.72;;;3.50;;
21014;SDS011;19207;-23.482;-46.500;2023-07-20T14:50:40;6.50;;;3.40;;
21014;SDS011;19207;-23.482;-46.500;2023-07-20T14:53:27;5.72;;;4.12;;
21014;SDS011;19207;-23.482;-46.500;2023-07-20T14:56:14;8.10;;;5.37;;
21014;SDS011;19207;-23.482;-46.500;2023-07-20T14:59:01;11.23;;;4.20;;
21014;SDS011;19207;-23.482;-46.500;2023-07-20T15:01:47;6.65;;;2.95;;
21014;SDS011;19207;-23.482;-46.500;2023-07-20T15:04:34;6.62;;;4.25;;
21014;SDS011;19207;-23.482;-46.500;2023-07-20T15:07:21;11.63;;;4.82;;
21014;SDS011;19207;-23.482;-46.500;2023-07-20T15:10:08;11.50;;;4.68;;
21014;SDS011;19207;-23.482;-46.500;2023-07-20T15:12:54;6.35;;;3.90;;
21014;SDS011;19207;-23.482;-46.500;2023-07-20T15:15:41;12.32;;;4.50;;
21014;SDS011;19207;-23.482;-46.500;2023-07-20T15:18:29;11.80;;;5.65;;
21014;SDS011;19207;-23.482;-46.500;2023-07-20T15:21:16;12.48;;;4.93;;
21014;SDS011;19207;-23.482;-46.500;2023-07-20T15:24:03;7.93;;;4.60;;
21014;SDS011;19207;-23.482;-46.500;2023-07-20T15:26:50;8.63;;;3.75;;
21014;SDS011;19207;-23.482;-46.500;2023-07-20T15:29:37;7.47;;;4.97;;
21014;SDS011;19207;-23.482;-46.500;2023-07-20T15:32:23;5.00;;;3.72;;
21014;SDS011;19207;-23.482;-46.500;2023-07-20T15:35:10;8.80;;;5.90;;
21014;SDS011;19207;-23.482;-46.500;2023-07-20T15:37:57;13.40;;;4.97;;
21014;SDS011;19207;-23.482;-46.500;2023-07-20T15:40:44;6.85;;;3.40;;
21014;SDS011;19207;-23.482;-46.500;2023-07-20T15:43:32;3.92;;;3.30;;
21014;SDS011;19207;-23.482;-46.500;2023-07-20T15:49:05;8.13;;;3.90;;
21014;SDS011;19207;-23.482;-46.500;2023-07-20T15:51:53;10.98;;;4.30;;
21014;SDS011;19207;-23.482;-46.500;2023-07-20T15:54:40;12.40;;;4.37;;
21014;SDS011;19207;-23.482;-46.500;2023-07-20T15:57:27;19.35;;;4.70;;
21014;SDS011;19207;-23.482;-46.500;2023-07-20T16:00:13;9.77;;;4.00;;
21014;SDS011;19207;-23.482;-46.500;2023-07-20T16:03:00;8.98;;;4.25;;
21014;SDS011;19207;-23.482;-46.500;2023-07-20T16:05:46;9.98;;;4.53;;
21014;SDS011;19207;-23.482;-46.500;2023-07-20T16:08:33;11.75;;;4.35;;
21014;SDS011;19207;-23.482;-46.500;2023-07-20T16:11:20;8.05;;;5.10;;
21014;SDS011;19207;-23.482;-46.500;2023-07-20T16:14:08;11.38;;;5.68;;
21014;SDS011;19207;-23.482;-46.500;2023-07-20T16:16:54;7.55;;;4.82;;
21014;SDS011;19207;-23.482;-46.500;2023-07-20T16:19:42;5.85;;;4.50;;
21014;SDS011;19207;-23.482;-46.500;2023-07-20T16:22:29;7.18;;;4.80;;
21014;SDS011;19207;-23.482;-46.500;2023-07-20T16:25:16;17.23;;;15.60;;